Time;durP1;ratioP1;P1;durP2;ratioP2;P2;SDS_P1;SDS_P2;PMS_P1;PMS_P2;Temp;Humidity;BMP_temperature;BMP_pressure;BME280_temperature;BME280_humidity;BME280_pressure;Samples;Min_cycle;Max_cycle;Signal;HPM_P1;HPM_P2
2023/12/07 00:01:45;;;;;;;;;;;;;;;7.32;75.78;99253.06;5053442;28;19912;-79
2023/12/07 00:04:10;;;;;;;;;;;;;;;7.35;75.56;99257.19;5053467;28;19913;-79
2023/12/07 00:06:35;;;;;;;;;;;;;;;7.32;75.57;99250.44;5053156;28;19925;-79
2023/12/07 00:09:01;;;;;;;;;;;;;;;7.32;75.85;99257.50;5053265;28;20317;-79
2023/12/07 00:11:26;;;;;;;;;;;;;;;7.30;75.34;99256.84;5053229;28;19995;-79
2023/12/07 00:13:52;;;;;;;;;;;;;;;7.30;75.67;99257.69;5051679;28;19963;-79
2023/12/07 00:16:17;;;;;;;;;;;;;;;7.25;75.50;99252.09;5053018;28;19913;-79
2023/12/07 00:18:43;;;;;;;;;;;;;;;7.24;75.92;99250.44;5053357;28;19967;-79
2023/12/07 00:21:09;;;;;;;;;;;;;;;7.23;76.03;99259.31;5052082;28;19934;-79
2023/12/07 00:23:34;;;;;;;;;;;;;;;7.20;75.43;99258.81;5053511;28;19936;-79
2023/12/07 00:25:59;;;;;;;;;;;;;;;7.15;75.43;99255.88;5053408;28;19970;-79
2023/12/07 00:28:24;;;;;;;;;;;;;;;7.13;75.97;99255.22;5053274;28;19920;-79
2023/12/07 00:30:50;;;;;;;;;;;;;;;7.16;75.42;99262.75;5053428;28;19920;-80
2023/12/07 00:33:16;;;;;;;;;;;;;;;7.15;75.52;99259.31;5052854;28;19913;-80
2023/12/07 00:35:42;;;;;;;;;;;;;;;7.16;75.44;99262.75;5052654;28;19917;-79
2023/12/07 00:38:08;;;;;;;;;;;;;;;7.17;75.77;99252.09;5051494;28;20098;-79
2023/12/07 00:40:36;;;;;;;;;;;;;;;7.18;75.62;99258.97;5052675;28;19992;-79
2023/12/07 00:43:02;;;;;;;;;;;;;;;7.17;75.05;99261.78;5052806;28;19920;-79
2023/12/07 00:45:27;;;;;;;;;;;;;;;7.14;75.04;99268.16;5052741;28;20368;-79
2023/12/07 00:47:52;;;;;;;;;;;;;;;7.13;75.39;99265.72;5052677;28;19959;-80
2023/12/07 00:50:17;;;;;;;;;;;;;;;7.11;75.18;99262.44;5052650;28;20366;-80
2023/12/07 00:52:43;;;;;;;;;;;;;;;7.12;75.55;99274.56;5052488;28;19917;-79
2023/12/07 00:55:08;;;;;;;;;;;;;;;7.09;75.92;99272.25;5052238;28;19923;-79
2023/12/07 00:57:34;;;;;;;;;;;;;;;7.09;75.63;99272.25;5052258;28;19936;-79
2023/12/07 00:59:59;;;;;;;;;;;;;;;7.06;75.84;99275.22;5052499;28;20309;-79
2023/12/07 01:02:24;;;;;;;;;;;;;;;7.06;75.48;99275.22;5052319;28;20318;-79
2023/12/07 01:04:49;;;;;;;;;;;;;;;7.07;75.62;99275.06;5052232;28;20408;-79
2023/12/07 01:07:15;;;;;;;;;;;;;;;7.09;75.22;99267.00;5050932;28;19921;-79
2023/12/07 01:09:40;;;;;;;;;;;;;;;7.07;75.52;99272.44;5050917;28;19913;-80
2023/12/07 01:12:05;;;;;;;;;;;;;;;7.09;75.44;99272.25;5052420;28;19912;-79
2023/12/07 01:14:31;;;;;;;;;;;;;;;7.11;75.52;99265.06;5052364;28;19917;-79
2023/12/07 01:16:56;;;;;;;;;;;;;;;7.09;74.94;99261.75;5052286;28;19924;-79
2023/12/07 01:19:21;;;;;;;;;;;;;;;7.08;75.29;99260.94;5051947;28;19908;-79
2023/12/07 01:21:47;;;;;;;;;;;;;;;7.07;75.26;99255.84;5050608;28;19913;-79
2023/12/07 01:24:12;;;;;;;;;;;;;;;7.04;74.79;99257.00;5051952;28;19916;-80
2023/12/07 01:26:37;;;;;;;;;;;;;;;7.03;74.98;99254.53;5051962;28;19917;-79
2023/12/07 01:29:03;;;;;;;;;;;;;;;6.99;74.84;99252.25;5050598;28;19913;-79
2023/12/07 01:31:29;;;;;;;;;;;;;;;6.97;75.03;99248.13;5051893;28;19952;-79
2023/12/07 01:33:54;;;;;;;;;;;;;;;6.94;75.54;99248.47;5051874;28;19909;-79
2023/12/07 01:36:20;;;;;;;;;;;;;;;6.89;74.88;99248.94;5052219;28;19913;-79
2023/12/07 01:38:45;;;;;;;;;;;;;;;6.87;75.00;99243.03;5051962;28;19944;-79
2023/12/07 01:41:11;;;;;;;;;;;;;;;6.83;75.40;99233.84;5052098;28;19988;-79
2023/12/07 01:43:36;;;;;;;;;;;;;;;6.79;74.84;99239.59;5051978;28;19923;-79
2023/12/07 01:46:02;;;;;;;;;;;;;;;6.73;75.22;99241.03;5051809;28;20371;-80
2023/12/07 01:48:28;;;;;;;;;;;;;;;6.68;74.90;99232.81;5051887;28;20356;-81
2023/12/07 01:50:54;;;;;;;;;;;;;;;6.65;75.63;99241.00;5051751;28;19913;-80
2023/12/07 01:53:21;;;;;;;;;;;;;;;6.63;75.83;99241.16;5051677;28;19919;-80
2023/12/07 01:55:47;;;;;;;;;;;;;;;6.60;75.52;99246.72;5051491;28;19921;-80
2023/12/07 01:58:12;;;;;;;;;;;;;;;6.58;75.47;99246.06;5051527;28;19913;-80
2023/12/07 02:00:38;;;;;;;;;;;;;;;6.61;75.72;99242.31;5051604;28;19913;-79
2023/12/07 02:03:04;;;;;;;;;;;;;;;6.61;75.57;99239.69;5051710;28;19913;-79
2023/12/07 02:05:31;;;;;;;;;;;;;;;6.60;75.56;99235.41;5051279;28;19921;-80
2023/12/07 02:07:56;;;;;;;;;;;;;;;6.60;75.36;99235.41;5051431;28;19913;-81
2023/12/07 02:10:21;;;;;;;;;;;;;;;6.58;74.92;99238.19;5051379;28;19912;-79
2023/12/07 02:12:47;;;;;;;;;;;;;;;6.48;74.49;99248.00;5050146;28;19913;-79
2023/12/07 02:15:13;;;;;;;;;;;;;;;6.40;75.29;99240.09;5051522;28;19916;-80
2023/12/07 02:18:02;;;;;;;;;;;;;;;6.42;75.59;99246.00;5051412;28;20317;-80
2023/12/07 02:20:37;;;;;;;;;;;;;;;6.44;75.25;99248.47;5051272;28;20382;-80
2023/12/07 02:23:04;;;;;;;;;;;;;;;6.41;74.53;99251.41;5053762;28;19913;-80
2023/12/07 02:25:32;;;;;;;;;;;;;;;6.39;74.71;99256.81;5053940;28;19920;-80
2023/12/07 02:27:57;;;;;;;;;;;;;;;6.37;74.58;99251.72;5055299;28;19923;-80
2023/12/07 02:30:23;;;;;;;;;;;;;;;6.40;75.16;99255.03;5055190;28;19913;-80
2023/12/07 02:32:48;;;;;;;;;;;;;;;6.39;74.58;99251.56;5053717;28;19913;-80
2023/12/07 02:35:14;;;;;;;;;;;;;;;6.37;74.96;99250.91;5054920;28;19995;-80
2023/12/07 02:37:49;;;;;;;;;;;;;;;6.35;74.63;99242.38;5054855;28;19912;-80
2023/12/07 02:40:17;;;;;;;;;;;;;;;6.32;74.39;99253.19;5054895;28;19913;-79
2023/12/07 02:42:43;;;;;;;;;;;;;;;6.31;74.72;99248.91;5053699;28;19913;-79
2023/12/07 02:45:09;;;;;;;;;;;;;;;6.27;74.76;99251.03;5054983;28;19919;-80
2023/12/07 02:47:35;;;;;;;;;;;;;;;6.26;74.71;99259.06;5054905;28;19913;-79
2023/12/07 02:50:00;;;;;;;;;;;;;;;6.25;74.83;99253.00;5054925;28;20312;-80
2023/12/07 02:52:25;;;;;;;;;;;;;;;6.22;74.28;99250.69;5054593;28;19913;-79
2023/12/07 02:54:51;;;;;;;;;;;;;;;6.20;75.06;99251.81;5054422;28;20382;-79
2023/12/07 02:57:16;;;;;;;;;;;;;;;6.19;74.28;99256.25;5054826;28;20317;-79
2023/12/07 02:59:41;;;;;;;;;;;;;;;6.20;74.37;99251.81;5054906;28;19987;-80
2023/12/07 03:02:07;;;;;;;;;;;;;;;6.18;74.26;99259.84;5054751;28;19913;-79
2023/12/07 03:04:32;;;;;;;;;;;;;;;6.19;74.30;99265.91;5054593;28;19913;-79
2023/12/07 03:06:58;;;;;;;;;;;;;;;6.15;74.13;99260.16;5052989;28;19921;-79
2023/12/07 03:09:23;;;;;;;;;;;;;;;6.15;74.15;99252.28;5054391;28;19962;-80
2023/12/07 03:11:48;;;;;;;;;;;;;;;6.15;74.46;99259.34;5054718;28;20290;-79
2023/12/07 03:14:13;;;;;;;;;;;;;;;6.12;75.04;99259.66;5054436;28;19924;-79
2023/12/07 03:16:39;;;;;;;;;;;;;;;6.15;74.58;99256.72;5054291;28;20318;-80
2023/12/07 03:19:04;;;;;;;;;;;;;;;6.15;74.44;99249.69;5053035;28;20432;-79
2023/12/07 03:21:29;;;;;;;;;;;;;;;6.14;74.25;99240.16;5054138;28;19916;-80
2023/12/07 03:23:55;;;;;;;;;;;;;;;6.16;74.12;99248.69;5054393;28;19913;-79
2023/12/07 03:26:20;;;;;;;;;;;;;;;6.14;74.42;99242.78;5054153;28;19913;-79
2023/12/07 03:28:46;;;;;;;;;;;;;;;6.15;74.30;99243.59;5054189;28;19913;-79
2023/12/07 03:31:11;;;;;;;;;;;;;;;6.14;73.95;99248.03;5054070;28;19912;-80
2023/12/07 03:33:38;;;;;;;;;;;;;;;6.14;74.64;99250.66;5051511;28;19920;-79
2023/12/07 03:36:03;;;;;;;;;;;;;;;6.12;74.42;99244.75;5053855;28;19960;-79
2023/12/07 03:38:29;;;;;;;;;;;;;;;6.11;73.86;99250.16;5053912;28;19978;-79
2023/12/07 03:40:54;;;;;;;;;;;;;;;6.12;74.07;99251.78;5052597;28;19913;-79
2023/12/07 03:43:20;;;;;;;;;;;;;;;6.12;73.70;99252.59;5053957;28;19913;-79
2023/12/07 03:45:45;;;;;;;;;;;;;;;6.06;73.69;99248.00;5052488;28;19935;-79
2023/12/07 03:48:10;;;;;;;;;;;;;;;6.05;73.93;99249.78;5054073;28;19912;-80
2023/12/07 03:50:36;;;;;;;;;;;;;;;6.04;73.79;99263.06;5052369;28;19917;-79
2023/12/07 03:53:01;;;;;;;;;;;;;;;6.05;74.02;99256.84;5052215;28;19920;-79
2023/12/07 03:55:26;;;;;;;;;;;;;;;6.03;74.04;99259.59;5053319;28;19921;-79
2023/12/07 03:57:52;;;;;;;;;;;;;;;6.03;73.93;99256.16;5052472;28;19913;-79
2023/12/07 04:00:17;;;;;;;;;;;;;;;6.03;73.71;99261.41;5053509;28;19913;-80
2023/12/07 04:02:42;;;;;;;;;;;;;;;6.01;73.75;99252.88;5053737;28;19935;-79
2023/12/07 04:05:08;;;;;;;;;;;;;;;5.97;73.85;99248.94;5053430;28;20313;-79
2023/12/07 04:07:34;;;;;;;;;;;;;;;5.94;74.13;99252.66;5052088;28;20283;-79
2023/12/07 04:09:59;;;;;;;;;;;;;;;5.88;73.76;99255.03;5052040;28;19995;-79
2023/12/07 04:12:25;;;;;;;;;;;;;;;5.87;73.60;99261.25;5053123;28;19919;-78
2023/12/07 04:14:50;;;;;;;;;;;;;;;5.85;73.89;99250.94;5053143;28;19917;-79
2023/12/07 04:17:17;;;;;;;;;;;;;;;5.84;73.88;99262.38;5053154;28;19917;-79
2023/12/07 04:19:42;;;;;;;;;;;;;;;5.84;74.26;99261.56;5053345;28;19913;-79
2023/12/07 04:22:07;;;;;;;;;;;;;;;5.75;73.60;99266.75;5051800;28;20381;-80
2023/12/07 04:24:32;;;;;;;;;;;;;;;5.75;73.53;99266.75;5053010;28;19917;-79
2023/12/07 04:26:58;;;;;;;;;;;;;;;5.74;74.23;99264.28;5053178;28;19973;-79
2023/12/07 04:29:23;;;;;;;;;;;;;;;5.71;73.80;99260.19;5053064;28;20007;-79
2023/12/07 04:31:48;;;;;;;;;;;;;;;5.73;73.74;99263.47;5053114;28;19958;-79
2023/12/07 04:34:14;;;;;;;;;;;;;;;5.71;73.80;99254.94;5052714;28;20283;-79
2023/12/07 04:36:39;;;;;;;;;;;;;;;5.69;73.70;99254.28;5052768;28;19913;-79
2023/12/07 04:39:04;;;;;;;;;;;;;;;5.69;73.72;99259.50;5052685;28;19924;-79
2023/12/07 04:41:30;;;;;;;;;;;;;;;5.72;73.54;99263.63;5052709;28;19920;-80
2023/12/07 04:43:55;;;;;;;;;;;;;;;5.67;73.18;99261.47;5052208;28;19913;-80
2023/12/07 04:46:20;;;;;;;;;;;;;;;5.65;73.26;99255.56;5052501;28;20393;-80
2023/12/07 04:48:46;;;;;;;;;;;;;;;5.59;73.25;99253.56;5052456;28;19913;-79
2023/12/07 04:51:11;;;;;;;;;;;;;;;5.61;73.84;99250.78;5052525;28;19913;-79
2023/12/07 04:53:36;;;;;;;;;;;;;;;5.46;73.67;99224.34;5052754;28;20389;-79
2023/12/07 04:56:02;;;;;;;;;;;;;;;5.57;73.53;99245.03;5052297;28;19955;-79
2023/12/07 04:58:27;;;;;;;;;;;;;;;5.58;73.66;99245.84;5052220;28;19975;-79
2023/12/07 05:00:52;;;;;;;;;;;;;;;5.63;74.09;99249.66;5052154;28;19917;-80
2023/12/07 05:03:18;;;;;;;;;;;;;;;5.63;73.77;99254.06;5052267;28;19913;-79
2023/12/07 05:05:43;;;;;;;;;;;;;;;5.64;73.56;99258.34;5052202;28;20397;-79
2023/12/07 05:08:08;;;;;;;;;;;;;;;5.60;73.63;99264.84;5052277;28;20421;-80
2023/12/07 05:10:34;;;;;;;;;;;;;;;5.54;72.40;99275.94;5052098;28;19919;-79
2023/12/07 05:12:59;;;;;;;;;;;;;;;5.54;73.78;99276.75;5052323;28;19996;-79
2023/12/07 05:15:25;;;;;;;;;;;;;;;5.53;73.40;99277.72;5052094;28;19971;-79
2023/12/07 05:17:50;;;;;;;;;;;;;;;5.52;72.67;99280.50;5052346;28;19913;-79
2023/12/07 05:20:15;;;;;;;;;;;;;;;5.50;73.01;99280.66;5052193;28;20282;-80
2023/12/07 05:22:41;;;;;;;;;;;;;;;5.54;73.40;99283.78;5052435;28;20409;-79
2023/12/07 05:25:06;;;;;;;;;;;;;;;5.56;73.37;99289.69;5052360;28;19921;-79
2023/12/07 05:27:32;;;;;;;;;;;;;;;5.58;73.26;99285.94;5052436;28;19913;-80
2023/12/07 05:29:57;;;;;;;;;;;;;;;5.58;73.54;99282.50;5051906;28;19920;-79
2023/12/07 05:32:22;;;;;;;;;;;;;;;5.60;73.33;99284.00;5051943;28;19913;-80
2023/12/07 05:34:48;;;;;;;;;;;;;;;5.60;73.14;99288.41;5051976;28;19917;-79
2023/12/07 05:37:13;;;;;;;;;;;;;;;5.63;73.18;99291.56;5052091;28;19948;-80
2023/12/07 05:39:38;;;;;;;;;;;;;;;5.63;73.71;99302.03;5052409;28;20002;-80
2023/12/07 05:42:04;;;;;;;;;;;;;;;5.62;72.79;99297.78;5072092;28;19900;-81
2023/12/07 05:44:29;;;;;;;;;;;;;;;5.61;73.87;99303.16;5068341;28;20399;-80
2023/12/07 05:46:55;;;;;;;;;;;;;;;5.61;73.87;99305.78;5051742;28;20409;-79
2023/12/07 05:49:22;;;;;;;;;;;;;;;5.67;73.76;99308.59;5051889;28;20003;-79
2023/12/07 05:51:48;;;;;;;;;;;;;;;5.70;73.43;99310.94;5051764;28;20355;-79
2023/12/07 05:54:14;;;;;;;;;;;;;;;5.71;73.34;99312.56;5051465;28;19966;-79
2023/12/07 05:56:40;;;;;;;;;;;;;;;5.74;73.46;99311.44;5053096;28;19913;-79
2023/12/07 05:59:05;;;;;;;;;;;;;;;5.74;73.03;99312.25;5055971;28;20415;-79
2023/12/07 06:01:31;;;;;;;;;;;;;;;5.78;73.29;99309.34;5055908;28;19913;-79
2023/12/07 06:03:57;;;;;;;;;;;;;;;5.75;72.76;99305.22;5059165;28;20032;-80
2023/12/07 06:06:22;;;;;;;;;;;;;;;5.73;72.83;99310.63;5079507;28;20010;-80
2023/12/07 06:08:49;;;;;;;;;;;;;;;5.74;72.71;99312.25;5083437;28;20393;-79
2023/12/07 06:11:14;;;;;;;;;;;;;;;5.69;72.56;99322.38;5074272;28;20324;-79
2023/12/07 06:13:40;;;;;;;;;;;;;;;5.74;73.08;99322.75;5075500;28;19912;-80
2023/12/07 06:16:05;;;;;;;;;;;;;;;5.81;73.27;99322.94;5075365;28;19927;-79
2023/12/07 06:18:31;;;;;;;;;;;;;;;5.84;72.56;99320.03;5076422;28;19948;-80
2023/12/07 06:20:56;;;;;;;;;;;;;;;5.86;73.03;99325.94;5089365;28;19920;-79
2023/12/07 06:23:21;;;;;;;;;;;;;;;5.92;72.34;99327.97;5095479;28;19915;-80
2023/12/07 06:25:47;;;;;;;;;;;;;;;5.95;72.97;99329.50;5095557;28;19912;-79
2023/12/07 06:28:12;;;;;;;;;;;;;;;5.98;72.90;99327.38;5092019;28;19912;-79
2023/12/07 06:30:38;;;;;;;;;;;;;;;5.97;72.36;99336.22;5080647;28;19916;-79
2023/12/07 06:33:03;;;;;;;;;;;;;;;5.94;72.57;99333.06;5093909;28;19923;-79
2023/12/07 06:35:29;;;;;;;;;;;;;;;5.92;72.63;99333.22;5093627;28;19920;-79
2023/12/07 06:37:54;;;;;;;;;;;;;;;5.91;72.55;99336.81;5095323;28;19912;-80
2023/12/07 06:40:20;;;;;;;;;;;;;;;5.92;72.39;99335.00;5095266;28;20372;-80
2023/12/07 06:42:45;;;;;;;;;;;;;;;5.93;72.49;99332.25;5095169;28;19919;-80
2023/12/07 06:45:14;;;;;;;;;;;;;;;5.95;72.29;99332.94;5095396;28;19912;-80
2023/12/07 06:47:39;;;;;;;;;;;;;;;5.90;72.83;99332.53;5084299;28;19917;-80
2023/12/07 06:50:08;;;;;;;;;;;;;;;5.92;72.71;99335.84;5075881;28;20381;-80
2023/12/07 06:52:33;;;;;;;;;;;;;;;5.96;72.50;99350.31;5074803;28;19913;-77
2023/12/07 06:54:58;;;;;;;;;;;;;;;6.02;72.61;99341.00;5074451;28;19916;-79
2023/12/07 06:57:24;;;;;;;;;;;;;;;6.05;72.13;99346.75;5093906;28;19920;-79
2023/12/07 06:59:50;;;;;;;;;;;;;;;6.11;72.48;99336.63;5094314;28;19913;-79
2023/12/07 07:02:16;;;;;;;;;;;;;;;6.17;73.07;99341.25;5094377;28;20381;-80
2023/12/07 07:04:41;;;;;;;;;;;;;;;6.18;72.35;99341.09;5066343;28;19975;-79
2023/12/07 07:07:06;;;;;;;;;;;;;;;6.19;72.27;99334.88;5073607;28;20038;-80
2023/12/07 07:09:32;;;;;;;;;;;;;;;6.21;72.71;99355.69;5061067;28;20305;-79
2023/12/07 07:11:57;;;;;;;;;;;;;;;6.26;72.68;99354.25;5073959;28;20444;-80
2023/12/07 07:14:22;;;;;;;;;;;;;;;6.33;73.06;99363.16;5084064;28;19980;-79
2023/12/07 07:16:48;;;;;;;;;;;;;;;6.38;72.57;99365.31;5090926;28;19999;-79
2023/12/07 07:19:13;;;;;;;;;;;;;;;6.41;72.68;99361.56;5095437;28;20313;-81
2023/12/07 07:21:38;;;;;;;;;;;;;;;6.46;73.29;99362.72;5105361;28;19904;-78
2023/12/07 07:24:04;;;;;;;;;;;;;;;6.52;73.31;99366.53;5101358;28;19931;-80
2023/12/07 07:26:29;;;;;;;;;;;;;;;6.56;72.78;99362.59;5059916;28;19920;-79
2023/12/07 07:28:55;;;;;;;;;;;;;;;6.63;72.89;99359.19;5062916;28;19923;-80
2023/12/07 07:31:20;;;;;;;;;;;;;;;6.69;73.09;99360.41;5073623;28;19923;-80
2023/12/07 07:33:49;;;;;;;;;;;;;;;6.75;72.98;99364.19;5067293;28;20428;-80
2023/12/07 07:36:15;;;;;;;;;;;;;;;6.78;72.41;99366.50;5053757;28;19917;-80
2023/12/07 07:38:40;;;;;;;;;;;;;;;6.82;72.79;99366.03;5052415;28;19920;-80
2023/12/07 07:41:05;;;;;;;;;;;;;;;6.91;73.03;99372.13;5051639;28;19912;-80
2023/12/07 07:43:31;;;;;;;;;;;;;;;6.93;72.57;99378.88;5074047;28;20011;-80
2023/12/07 07:45:56;;;;;;;;;;;;;;;6.94;72.31;99380.50;5063107;28;20012;-80
2023/12/07 07:48:22;;;;;;;;;;;;;;;6.96;72.39;99372.47;5053617;28;19952;-80
2023/12/07 07:50:47;;;;;;;;;;;;;;;7.01;72.20;99375.44;5069229;28;19971;-80
2023/12/07 07:53:12;;;;;;;;;;;;;;;7.01;72.68;99373.66;5060787;28;20389;-82
2023/12/07 07:55:38;;;;;;;;;;;;;;;7.06;72.67;99383.66;5054037;28;19952;-80
2023/12/07 07:58:03;;;;;;;;;;;;;;;7.14;72.61;99388.13;5072230;28;20007;-80
2023/12/07 08:00:28;;;;;;;;;;;;;;;7.17;72.53;99382.53;5058529;28;19965;-79
2023/12/07 08:02:54;;;;;;;;;;;;;;;7.23;72.70;99390.59;5058324;28;19916;-80
2023/12/07 08:05:19;;;;;;;;;;;;;;;7.29;72.67;99379.47;5072997;28;19919;-80
2023/12/07 08:07:44;;;;;;;;;;;;;;;7.34;72.78;99381.59;5073249;28;19919;-78
2023/12/07 08:10:10;;;;;;;;;;;;;;;7.41;72.65;99389.66;5064439;28;19924;-79
2023/12/07 08:12:36;;;;;;;;;;;;;;;7.47;72.97;99378.53;5056286;28;19917;-84
2023/12/07 08:15:01;;;;;;;;;;;;;;;7.57;73.29;99389.72;5059918;28;20401;-81
2023/12/07 08:17:26;;;;;;;;;;;;;;;7.67;72.56;99386.94;5076037;28;19920;-80
2023/12/07 08:19:52;;;;;;;;;;;;;;;7.76;72.31;99392.03;5088795;28;19919;-81
2023/12/07 08:22:17;;;;;;;;;;;;;;;7.84;72.60;99397.28;5093329;28;19913;-81
2023/12/07 08:24:43;;;;;;;;;;;;;;;7.92;72.11;99399.91;5093286;28;20313;-81
2023/12/07 08:27:08;;;;;;;;;;;;;;;8.01;72.44;99403.34;5072141;28;20376;-80
2023/12/07 08:29:34;;;;;;;;;;;;;;;8.06;72.23;99405.50;5072491;28;19985;-82
2023/12/07 08:31:59;;;;;;;;;;;;;;;8.12;71.82;99405.66;5057579;28;20371;-81
2023/12/07 08:34:25;;;;;;;;;;;;;;;8.19;71.53;99403.22;5068823;28;19942;-80
2023/12/07 08:36:50;;;;;;;;;;;;;;;8.22;71.47;99408.97;5069371;28;19982;-80
2023/12/07 08:39:16;;;;;;;;;;;;;;;8.26;71.74;99406.81;5062653;28;19958;-82
2023/12/07 08:41:41;;;;;;;;;;;;;;;8.29;71.46;99406.47;5064068;28;19917;-82
2023/12/07 08:44:06;;;;;;;;;;;;;;;8.32;71.36;99400.91;5060017;28;19917;-82
2023/12/07 08:46:32;;;;;;;;;;;;;;;8.34;71.27;99401.56;5069579;28;19916;-80
2023/12/07 08:48:57;;;;;;;;;;;;;;;8.39;71.29;99404.53;5070972;28;20420;-82
2023/12/07 08:51:22;;;;;;;;;;;;;;;8.43;71.48;99405.00;5068264;28;19924;-81
2023/12/07 08:53:48;;;;;;;;;;;;;;;8.44;71.50;99396.94;5074183;28;19916;-81
2023/12/07 08:56:13;;;;;;;;;;;;;;;8.49;71.46;99391.19;5092420;28;19923;-81
2023/12/07 08:58:41;;;;;;;;;;;;;;;8.54;71.23;99394.13;5089186;28;19912;-82
2023/12/07 09:01:07;;;;;;;;;;;;;;;8.58;70.98;99392.81;5064820;28;20004;-81
2023/12/07 09:03:33;;;;;;;;;;;;;;;8.63;70.94;99387.84;5058045;28;20587;-81
2023/12/07 09:05:59;;;;;;;;;;;;;;;8.66;70.64;99381.44;5079253;28;19935;-81
2023/12/07 09:08:24;;;;;;;;;;;;;;;8.71;70.78;99384.38;5071604;28;19916;-81
2023/12/07 09:10:51;;;;;;;;;;;;;;;8.73;70.58;99388.47;5070824;28;20003;-81
2023/12/07 09:13:17;;;;;;;;;;;;;;;8.77;70.72;99387.16;5077371;28;19920;-81
2023/12/07 09:15:42;;;;;;;;;;;;;;;8.84;70.49;99382.03;5081470;28;19920;-81
2023/12/07 09:18:07;;;;;;;;;;;;;;;8.86;70.69;99387.94;5090257;28;19920;-81
2023/12/07 09:20:33;;;;;;;;;;;;;;;8.86;70.69;99403.72;5079958;28;19917;-81
2023/12/07 09:22:58;;;;;;;;;;;;;;;8.90;70.84;99389.25;5068880;28;19913;-82
2023/12/07 09:25:27;;;;;;;;;;;;;;;8.96;70.46;99390.41;5060543;28;19948;-81
2023/12/07 09:27:52;;;;;;;;;;;;;;;9.01;70.75;99381.00;5081980;28;20002;-79
2023/12/07 09:30:18;;;;;;;;;;;;;;;9.06;70.74;99376.03;5085498;28;19964;-80
2023/12/07 09:32:43;;;;;;;;;;;;;;;9.14;70.72;99383.06;5086085;28;19994;-80
2023/12/07 09:35:18;;;;;;;;;;;;;;;9.22;70.10;99378.56;5072312;28;20385;-81
2023/12/07 09:37:44;;;;;;;;;;;;;;;9.32;70.09;99378.34;5071982;28;20313;-82
2023/12/07 09:40:14;;;;;;;;;;;;;;;9.40;69.90;99365.13;5079690;28;19924;-80
2023/12/07 09:42:41;;;;;;;;;;;;;;;9.48;69.83;99359.81;5077782;28;19916;-80
2023/12/07 09:45:07;;;;;;;;;;;;;;;9.54;69.46;99360.91;5070323;28;19951;-81
2023/12/07 09:47:33;;;;;;;;;;;;;;;9.62;69.57;99357.41;5049533;28;19924;-80
2023/12/07 09:49:59;;;;;;;;;;;;;;;9.65;69.45;99355.22;5058926;28;20011;-80
2023/12/07 09:52:24;;;;;;;;;;;;;;;9.70;69.30;99349.44;5069622;28;20086;-80
2023/12/07 09:54:51;;;;;;;;;;;;;;;9.77;69.43;99347.75;5088433;28;19978;-80
2023/12/07 09:57:17;;;;;;;;;;;;;;;9.85;69.08;99345.03;5091381;28;19912;-82
2023/12/07 09:59:42;;;;;;;;;;;;;;;9.94;69.00;99346.59;5085342;28;20385;-81
2023/12/07 10:02:07;;;;;;;;;;;;;;;9.96;69.35;99347.25;5067494;28;19917;-81
2023/12/07 10:04:33;;;;;;;;;;;;;;;9.97;68.63;99348.06;5055130;28;19913;-81
2023/12/07 10:06:58;;;;;;;;;;;;;;;9.96;68.63;99338.50;5051297;28;20500;-80
2023/12/07 10:09:24;;;;;;;;;;;;;;;10.01;68.35;99334.34;5088505;28;19924;-81
2023/12/07 10:11:49;;;;;;;;;;;;;;;10.05;67.86;99340.09;5091635;28;19919;-81
2023/12/07 10:14:15;;;;;;;;;;;;;;;10.08;68.09;99329.16;5056348;28;19920;-81
2023/12/07 10:16:55;;;;;;;;;;;;;;;10.11;67.86;99334.91;5085784;28;19969;-81
2023/12/07 10:19:21;;;;;;;;;;;;;;;10.16;68.21;99331.72;5091089;28;19920;-81
2023/12/07 10:21:56;;;;;;;;;;;;;;;10.21;68.17;99331.22;5091284;28;20350;-82
2023/12/07 10:24:22;;;;;;;;;;;;;;;10.25;67.92;99335.13;5091247;28;19912;-82
2023/12/07 10:26:49;;;;;;;;;;;;;;;10.30;68.28;99336.22;5086400;28;19916;-81
2023/12/07 10:29:14;;;;;;;;;;;;;;;10.32;67.58;99330.75;5079026;28;19963;-81
2023/12/07 10:31:40;;;;;;;;;;;;;;;10.29;67.53;99329.31;5057683;28;19952;-81
2023/12/07 10:34:05;;;;;;;;;;;;;;;10.23;67.19;99327.41;5049270;28;19917;-81
2023/12/07 10:36:30;;;;;;;;;;;;;;;10.15;67.49;99322.16;5051022;28;20388;-82
2023/12/07 10:38:56;;;;;;;;;;;;;;;10.16;67.44;99326.44;5059190;28;19997;-81
2023/12/07 10:41:23;;;;;;;;;;;;;;;10.17;67.40;99323.63;5091744;28;20010;-82
2023/12/07 10:43:51;;;;;;;;;;;;;;;10.17;67.34;99321.00;5083995;28;19966;-81
2023/12/07 10:46:19;;;;;;;;;;;;;;;10.16;68.24;99313.25;5072500;28;20004;-82
2023/12/07 10:48:47;;;;;;;;;;;;;;;10.23;68.01;99311.56;5070475;28;19904;-81
2023/12/07 10:51:16;;;;;;;;;;;;;;;10.30;68.13;99309.84;5057769;28;20282;-80
2023/12/07 10:53:43;;;;;;;;;;;;;;;10.36;67.19;99316.22;5059343;28;19952;-82
2023/12/07 10:56:30;;;;;;;;;;;;;;;10.34;67.02;99319.03;5054611;28;20417;-83
2023/12/07 10:58:56;;;;;;;;;;;;;;;10.31;66.57;99318.56;5050781;28;20402;-80
2023/12/07 11:01:23;;;;;;;;;;;;;;;10.31;67.57;99321.22;5061030;28;19919;-82
2023/12/07 11:03:52;;;;;;;;;;;;;;;10.32;67.37;99315.75;5074654;28;19916;-82
2023/12/07 11:06:18;;;;;;;;;;;;;;;10.32;67.41;99315.75;5089869;28;20393;-83
2023/12/07 11:08:49;;;;;;;;;;;;;;;10.32;67.89;99309.66;5071593;28;19986;-83
2023/12/07 11:11:20;;;;;;;;;;;;;;;10.30;67.03;99303.75;5094107;28;19957;-83
2023/12/07 11:14:02;;;;;;;;;;;;;;;10.27;66.97;99299.66;5085703;28;20286;-83
2023/12/07 11:16:31;;;;;;;;;;;;;;;10.27;67.46;99306.75;5069267;28;19928;-83
2023/12/07 11:18:58;;;;;;;;;;;;;;;10.25;67.85;99309.56;5080286;28;19943;-81
2023/12/07 11:21:23;;;;;;;;;;;;;;;10.25;67.91;99308.75;5096195;28;19924;-81
2023/12/07 11:23:48;;;;;;;;;;;;;;;10.29;67.95;99310.03;5078071;28;19916;-83
2023/12/07 11:26:14;;;;;;;;;;;;;;;10.34;67.57;99299.75;5077488;28;19916;-82
2023/12/07 11:28:39;;;;;;;;;;;;;;;10.39;67.60;99300.00;5059445;28;19920;-82
2023/12/07 11:31:08;;;;;;;;;;;;;;;10.44;67.34;99300.31;5073213;28;19920;-81
2023/12/07 11:33:33;;;;;;;;;;;;;;;10.50;67.22;99296.94;5064117;28;19923;-82
2023/12/07 11:36:01;;;;;;;;;;;;;;;10.49;67.10;99300.56;5073911;28;19921;-82
2023/12/07 11:38:27;;;;;;;;;;;;;;;10.47;67.43;99302.59;5072721;28;20008;-81
2023/12/07 11:40:53;;;;;;;;;;;;;;;10.43;68.00;99291.56;5056676;28;20114;-82
2023/12/07 11:43:39;;;;;;;;;;;;;;;10.47;67.48;99299.94;5073677;28;20381;-81
2023/12/07 11:46:06;;;;;;;;;;;;;;;10.48;67.41;99291.03;5063124;28;20381;-82
2023/12/07 11:48:31;;;;;;;;;;;;;;;10.49;66.72;99292.66;5058319;28;19924;-82
2023/12/07 11:51:00;;;;;;;;;;;;;;;10.52;67.45;99291.47;5059890;28;19924;-82
2023/12/07 11:53:28;;;;;;;;;;;;;;;10.49;67.29;99290.03;5067265;28;20004;-81
2023/12/07 11:55:53;;;;;;;;;;;;;;;10.48;67.27;99297.13;5055210;28;19943;-81
2023/12/07 11:58:18;;;;;;;;;;;;;;;10.49;68.19;99287.38;5073312;28;20457;-81
2023/12/07 12:00:47;;;;;;;;;;;;;;;10.51;67.45;99290.66;5091988;28;20341;-81
2023/12/07 12:03:15;;;;;;;;;;;;;;;10.50;67.54;99294.28;5073928;28;19916;-81
2023/12/07 12:05:41;;;;;;;;;;;;;;;10.49;67.93;99293.47;5061094;28;19964;-83
2023/12/07 12:08:07;;;;;;;;;;;;;;;10.49;67.56;99290.84;5056288;28;20039;-82
2023/12/07 12:10:32;;;;;;;;;;;;;;;10.55;67.42;99299.84;5059567;28;20440;-83
2023/12/07 12:13:01;;;;;;;;;;;;;;;10.57;67.76;99291.75;5080313;28;20003;-84
2023/12/07 12:15:27;;;;;;;;;;;;;;;10.52;66.84;99278.28;5088787;28;19956;-83
2023/12/07 12:17:58;;;;;;;;;;;;;;;10.57;67.00;99284.63;5083571;28;20208;-81
2023/12/07 12:20:24;;;;;;;;;;;;;;;10.60;67.80;99284.28;5076133;28;19924;-82
2023/12/07 12:22:49;;;;;;;;;;;;;;;10.61;67.59;99274.53;5085631;28;19921;-83
2023/12/07 12:25:15;;;;;;;;;;;;;;;10.64;67.88;99276.81;5093004;28;19961;-82
2023/12/07 12:27:40;;;;;;;;;;;;;;;10.63;67.99;99281.25;5076062;28;19916;-82
2023/12/07 12:30:06;;;;;;;;;;;;;;;10.65;68.14;99278.44;5072528;28;19966;-82
2023/12/07 12:32:44;;;;;;;;;;;;;;;10.59;67.57;99277.34;5070745;28;19908;-82
2023/12/07 12:35:11;;;;;;;;;;;;;;;10.56;67.18;99279.53;5091294;28;19971;-82
2023/12/07 12:37:38;;;;;;;;;;;;;;;10.51;68.10;99272.19;5091033;28;19920;-85
2023/12/07 12:40:06;;;;;;;;;;;;;;;10.51;67.25;99277.47;5084923;28;19916;-85
2023/12/07 12:42:32;;;;;;;;;;;;;;;10.52;67.65;99275.63;5081118;28;19970;-84
2023/12/07 12:44:57;;;;;;;;;;;;;;;10.49;68.15;99276.81;5062020;28;19944;-84
2023/12/07 12:47:23;;;;;;;;;;;;;;;10.48;68.04;99289.19;5062464;28;19924;-84
2023/12/07 12:49:48;;;;;;;;;;;;;;;10.50;67.70;99286.38;5057789;28;19920;-83